sensor_id;sensor_type;location;lat;lon;timestamp;pressure;altitude;pressure_sealevel;temperature;humidity
63019;BME280;49105;46.046;10.760;2023-03-20T00:01:29;95853.66;;;9.26;57.61
63019;BME280;49105;46.046;10.760;2023-03-20T00:03:57;95848.66;;;9.29;57.87
63019;BME280;49105;46.046;10.760;2023-03-20T00:06:25;95849.72;;;9.28;58.07
63019;BME280;49105;46.046;10.760;2023-03-20T00:08:52;95846.28;;;9.28;57.60
63019;BME280;49105;46.046;10.760;2023-03-20T00:11:32;95845.00;;;9.30;57.67
63019;BME280;49105;46.046;10.760;2023-03-20T00:14:04;95839.66;;;9.25;57.78
63019;BME280;49105;46.046;10.760;2023-03-20T00:16:42;95840.72;;;9.19;57.75
63019;BME280;49105;46.046;10.760;2023-03-20T00:19:27;95839.66;;;9.20;58.32
63019;BME280;49105;46.046;10.760;2023-03-20T00:21:56;95844.44;;;9.23;58.25
63019;BME280;49105;46.046;10.760;2023-03-20T00:24:23;95840.72;;;9.24;58.33
63019;BME280;49105;46.046;10.760;2023-03-20T00:27:01;95832.53;;;9.26;58.37
63019;BME280;49105;46.046;10.760;2023-03-20T00:29:28;95838.88;;;9.25;58.03
63019;BME280;49105;46.046;10.760;2023-03-20T00:31:56;95836.22;;;9.25;58.42
63019;BME280;49105;46.046;10.760;2023-03-20T00:34:24;95831.16;;;9.13;58.40
63019;BME280;49105;46.046;10.760;2023-03-20T00:36:54;95830.59;;;9.01;58.25
63019;BME280;49105;46.046;10.760;2023-03-20T00:39:21;95827.13;;;8.95;58.41
63019;BME280;49105;46.046;10.760;2023-03-20T00:41:57;95832.16;;;8.97;58.60
63019;BME280;49105;46.046;10.760;2023-03-20T00:44:43;95836.41;;;8.98;58.85
63019;BME280;49105;46.046;10.760;2023-03-20T00:47:20;95835.06;;;9.00;58.62
63019;BME280;49105;46.046;10.760;2023-03-20T00:49:52;95826.66;;;9.03;58.63
63019;BME280;49105;46.046;10.760;2023-03-20T00:52:21;95825.06;;;9.02;58.52
63019;BME280;49105;46.046;10.760;2023-03-20T00:54:56;95827.72;;;9.07;58.15
63019;BME280;49105;46.046;10.760;2023-03-20T00:57:36;95826.94;;;9.12;58.03
63019;BME280;49105;46.046;10.760;2023-03-20T01:00:22;95817.72;;;9.09;58.60
63019;BME280;49105;46.046;10.760;2023-03-20T01:02:56;95823.50;;;9.06;58.95
63019;BME280;49105;46.046;10.760;2023-03-20T01:05:23;95820.59;;;9.08;58.33
63019;BME280;49105;46.046;10.760;2023-03-20T01:07:48;95814.53;;;9.07;58.58
63019;BME280;49105;46.046;10.760;2023-03-20T01:10:17;95809.75;;;9.04;58.61
63019;BME280;49105;46.046;10.760;2023-03-20T01:12:46;95812.66;;;9.08;58.47
63019;BME280;49105;46.046;10.760;2023-03-20T01:15:21;95806.31;;;9.09;58.71
63019;BME280;49105;46.046;10.760;2023-03-20T01:17:48;95809.47;;;9.01;58.94
63019;BME280;49105;46.046;10.760;2023-03-20T01:20:22;95804.16;;;8.95;58.96
63019;BME280;49105;46.046;10.760;2023-03-20T01:22:55;95804.16;;;8.90;59.07
63019;BME280;49105;46.046;10.760;2023-03-20T01:25:29;95803.88;;;8.87;59.30
63019;BME280;49105;46.046;10.760;2023-03-20T01:27:55;95799.38;;;8.87;59.07
63019;BME280;49105;46.046;10.760;2023-03-20T01:30:30;95813.06;;;8.79;59.41
63019;BME280;49105;46.046;10.760;2023-03-20T01:32:56;95803.00;;;8.76;59.61
63019;BME280;49105;46.046;10.760;2023-03-20T01:35:31;95807.50;;;8.76;59.71
63019;BME280;49105;46.046;10.760;2023-03-20T01:37:57;95801.44;;;8.75;59.37
63019;BME280;49105;46.046;10.760;2023-03-20T01:40:30;95805.66;;;8.76;59.57
63019;BME280;49105;46.046;10.760;2023-03-20T01:43:00;95812.81;;;8.81;59.59
63019;BME280;49105;46.046;10.760;2023-03-20T01:45:33;95812.84;;;8.86;59.32
63019;BME280;49105;46.046;10.760;2023-03-20T01:48:15;95804.66;;;8.87;59.29
63019;BME280;49105;46.046;10.760;2023-03-20T01:50:44;95799.88;;;8.84;59.17
63019;BME280;49105;46.046;10.760;2023-03-20T01:53:22;95797.22;;;8.79;59.26
63019;BME280;49105;46.046;10.760;2023-03-20T01:55:50;95800.13;;;8.78;59.52
63019;BME280;49105;46.046;10.760;2023-03-20T01:58:34;95794.28;;;8.70;59.86
63019;BME280;49105;46.046;10.760;2023-03-20T02:01:11;95791.56;;;8.55;60.01
63019;BME280;49105;46.046;10.760;2023-03-20T02:03:47;95794.47;;;8.54;59.94
63019;BME280;49105;46.046;10.760;2023-03-20T02:06:21;95796.81;;;8.50;59.64
63019;BME280;49105;46.046;10.760;2023-03-20T02:08:53;95792.88;;;8.48;60.12
63019;BME280;49105;46.046;10.760;2023-03-20T02:11:20;95800.72;;;8.42;60.23
63019;BME280;49105;46.046;10.760;2023-03-20T02:13:58;95800.69;;;8.37;60.01
63019;BME280;49105;46.046;10.760;2023-03-20T02:16:27;95795.06;;;8.29;60.02
63019;BME280;49105;46.046;10.760;2023-03-20T02:18:54;95796.06;;;8.23;60.50
63019;BME280;49105;46.046;10.760;2023-03-20T02:38:24;95790.44;;;7.77;61.14
63019;BME280;49105;46.046;10.760;2023-03-20T02:41:24;95790.91;;;7.68;61.06
63019;BME280;49105;46.046;10.760;2023-03-20T02:49:22;95786.22;;;7.49;61.46
63019;BME280;49105;46.046;10.760;2023-03-20T03:00:17;95785.53;;;7.31;61.27
63019;BME280;49105;46.046;10.760;2023-03-20T03:02:55;95788.13;;;7.26;61.37
63019;BME280;49105;46.046;10.760;2023-03-20T03:05:51;95790.72;;;7.21;61.59
63019;BME280;49105;46.046;10.760;2023-03-20T03:08:31;95792.47;;;7.15;61.66
63019;BME280;49105;46.046;10.760;2023-03-20T03:11:10;95795.63;;;7.12;61.75
63019;BME280;49105;46.046;10.760;2023-03-20T03:13:44;95796.63;;;7.11;61.66
63019;BME280;49105;46.046;10.760;2023-03-20T03:16:16;95791.63;;;7.10;61.63
63019;BME280;49105;46.046;10.760;2023-03-20T03:18:48;95797.06;;;7.03;61.58
63019;BME280;49105;46.046;10.760;2023-03-20T03:21:24;95792.00;;;6.96;61.94
63019;BME280;49105;46.046;10.760;2023-03-20T03:23:51;95794.81;;;6.90;62.07
63019;BME280;49105;46.046;10.760;2023-03-20T03:26:23;95797.44;;;6.90;61.72
63019;BME280;49105;46.046;10.760;2023-03-20T03:28:54;95796.66;;;6.89;61.96
63019;BME280;49105;46.046;10.760;2023-03-20T03:31:24;95800.34;;;6.88;62.09
63019;BME280;49105;46.046;10.760;2023-03-20T03:33:58;95796.13;;;6.87;61.96
63019;BME280;49105;46.046;10.760;2023-03-20T03:36:46;95795.25;;;6.82;61.97
63019;BME280;49105;46.046;10.760;2023-03-20T03:42:08;95796.25;;;6.76;61.95
63019;BME280;49105;46.046;10.760;2023-03-20T03:47:57;95801.72;;;6.74;61.96
63019;BME280;49105;46.046;10.760;2023-03-20T03:50:29;95804.72;;;6.61;61.97
63019;BME280;49105;46.046;10.760;2023-03-20T03:53:08;95817.47;;;6.52;62.43
63019;BME280;49105;46.046;10.760;2023-03-20T03:55:48;95805.38;;;6.51;62.33
63019;BME280;49105;46.046;10.760;2023-03-20T03:58:30;95806.44;;;6.50;62.67
63019;BME280;49105;46.046;10.760;2023-03-20T04:01:10;95808.22;;;6.50;62.78
63019;BME280;49105;46.046;10.760;2023-03-20T04:03:39;95805.06;;;6.47;62.81
63019;BME280;49105;46.046;10.760;2023-03-20T04:06:10;95811.44;;;6.52;62.43
63019;BME280;49105;46.046;10.760;2023-03-20T04:08:46;95801.97;;;6.51;62.63
63019;BME280;49105;46.046;10.760;2023-03-20T04:11:16;95805.06;;;6.47;62.33
63019;BME280;49105;46.046;10.760;2023-03-20T04:13:49;95803.47;;;6.46;62.52
63019;BME280;49105;46.046;10.760;2023-03-20T04:16:20;95806.44;;;6.50;62.45
63019;BME280;49105;46.046;10.760;2023-03-20T04:18:46;95805.06;;;6.47;62.54
63019;BME280;49105;46.046;10.760;2023-03-20T04:21:18;95803.09;;;6.38;62.52
63019;BME280;49105;46.046;10.760;2023-03-20T04:23:49;95805.09;;;6.31;62.82
63019;BME280;49105;46.046;10.760;2023-03-20T04:26:21;95799.84;;;6.31;62.76
63019;BME280;49105;46.046;10.760;2023-03-20T04:28:55;95804.31;;;6.30;62.80
63019;BME280;49105;46.046;10.760;2023-03-20T04:31:29;95805.09;;;6.31;63.02
63019;BME280;49105;46.046;10.760;2023-03-20T04:34:04;95800.06;;;6.29;62.82
63019;BME280;49105;46.046;10.760;2023-03-20T04:36:33;95797.94;;;6.26;63.12
63019;BME280;49105;46.046;10.760;2023-03-20T04:39:04;95796.31;;;6.25;63.08
63019;BME280;49105;46.046;10.760;2023-03-20T04:41:36;95800.78;;;6.25;62.72
63019;BME280;49105;46.046;10.760;2023-03-20T04:44:08;95798.66;;;6.21;62.85
63019;BME280;49105;46.046;10.760;2023-03-20T04:46:46;95802.56;;;6.19;63.02
63019;BME280;49105;46.046;10.760;2023-03-20T04:49:17;95804.47;;;6.24;62.86
63019;BME280;49105;46.046;10.760;2023-03-20T04:51:55;95807.66;;;6.26;62.43
63019;BME280;49105;46.046;10.760;2023-03-20T04:54:27;95805.19;;;6.19;62.69
63019;BME280;49105;46.046;10.760;2023-03-20T04:56:53;95807.16;;;6.12;62.92
63019;BME280;49105;46.046;10.760;2023-03-20T04:59:27;95804.16;;;6.03;63.06
63019;BME280;49105;46.046;10.760;2023-03-20T05:01:52;95807.03;;;6.02;62.73
63019;BME280;49105;46.046;10.760;2023-03-20T05:04:18;95796.50;;;6.02;62.77
63019;BME280;49105;46.046;10.760;2023-03-20T05:06:53;95803.28;;;5.97;62.91
63019;BME280;49105;46.046;10.760;2023-03-20T05:09:18;95808.75;;;5.96;63.34
63019;BME280;49105;46.046;10.760;2023-03-20T05:11:53;95802.38;;;5.92;63.13
63019;BME280;49105;46.046;10.760;2023-03-20T05:14:18;95805.38;;;5.84;63.43
63019;BME280;49105;46.046;10.760;2023-03-20T05:16:44;95806.00;;;5.74;63.45
63019;BME280;49105;46.046;10.760;2023-03-20T05:19:12;95817.63;;;5.61;63.38
63019;BME280;49105;46.046;10.760;2023-03-20T05:21:47;95819.66;;;5.59;63.80
63019;BME280;49105;46.046;10.760;2023-03-20T05:24:13;95823.66;;;5.62;63.89
63019;BME280;49105;46.046;10.760;2023-03-20T05:26:44;95828.91;;;5.62;63.66
63019;BME280;49105;46.046;10.760;2023-03-20T05:29:10;95829.25;;;5.65;63.62
63019;BME280;49105;46.046;10.760;2023-03-20T05:31:42;95829.09;;;5.72;63.45
63019;BME280;49105;46.046;10.760;2023-03-20T05:34:20;95833.88;;;5.75;63.35
63019;BME280;49105;46.046;10.760;2023-03-20T05:36:52;95830.22;;;5.76;63.16
63019;BME280;49105;46.046;10.760;2023-03-20T05:39:26;95845.97;;;5.76;63.59
63019;BME280;49105;46.046;10.760;2023-03-20T05:41:52;95844.03;;;5.71;63.08
63019;BME280;49105;46.046;10.760;2023-03-20T05:44:17;95849.47;;;5.65;63.28
63019;BME280;49105;46.046;10.760;2023-03-20T05:46:52;95847.00;;;5.46;64.12
63019;BME280;49105;46.046;10.760;2023-03-20T05:49:20;95848.75;;;5.41;64.02
63019;BME280;49105;46.046;10.760;2023-03-20T05:51:55;95853.16;;;5.52;63.60
63019;BME280;49105;46.046;10.760;2023-03-20T05:54:30;95861.94;;;5.58;63.97
63019;BME280;49105;46.046;10.760;2023-03-20T05:57:04;95862.38;;;5.55;63.86
63019;BME280;49105;46.046;10.760;2023-03-20T05:59:39;95864.22;;;5.54;63.65
63019;BME280;49105;46.046;10.760;2023-03-20T06:02:23;95870.59;;;5.58;63.67
63019;BME280;49105;46.046;10.760;2023-03-20T06:04:54;95872.72;;;5.73;63.86
63019;BME280;49105;46.046;10.760;2023-03-20T06:10:42;95875.94;;;5.92;63.35
63019;BME280;49105;46.046;10.760;2023-03-20T06:13:07;95885.75;;;5.68;63.86
63019;BME280;49105;46.046;10.760;2023-03-20T06:15:42;95878.50;;;5.46;64.28
63019;BME280;49105;46.046;10.760;2023-03-20T06:18:13;95884.44;;;5.54;64.64
63019;BME280;49105;46.046;10.760;2023-03-20T06:20:39;95876.41;;;5.60;64.21
63019;BME280;49105;46.046;10.760;2023-03-20T06:23:05;95869.88;;;5.63;64.15
63019;BME280;49105;46.046;10.760;2023-03-20T06:25:30;95877.88;;;5.68;64.17
63019;BME280;49105;46.046;10.760;2023-03-20T06:28:05;95877.16;;;5.72;63.91
63019;BME280;49105;46.046;10.760;2023-03-20T06:30:30;95876.22;;;5.79;64.01
63019;BME280;49105;46.046;10.760;2023-03-20T06:32:56;95874.97;;;5.81;64.08
63019;BME280;49105;46.046;10.760;2023-03-20T06:35:27;95881.31;;;5.85;64.06
63019;BME280;49105;46.046;10.760;2023-03-20T06:38:04;95876.72;;;5.92;64.19
63019;BME280;49105;46.046;10.760;2023-03-20T06:40:42;95870.53;;;5.99;63.93
63019;BME280;49105;46.046;10.760;2023-03-20T06:43:09;95874.84;;;6.05;64.02
63019;BME280;49105;46.046;10.760;2023-03-20T06:45:42;95873.97;;;6.16;63.65
63019;BME280;49105;46.046;10.760;2023-03-20T06:48:17;95875.75;;;6.27;63.72
63019;BME280;49105;46.046;10.760;2023-03-20T06:50:52;95875.50;;;6.29;63.30
63019;BME280;49105;46.046;10.760;2023-03-20T06:53:17;95882.03;;;6.26;63.85
63019;BME280;49105;46.046;10.760;2023-03-20T06:55:52;95873.25;;;6.20;63.79
63019;BME280;49105;46.046;10.760;2023-03-20T06:58:21;95874.63;;;6.23;63.72
63019;BME280;49105;46.046;10.760;2023-03-20T07:00:47;95872.63;;;6.30;64.07
63019;BME280;49105;46.046;10.760;2023-03-20T07:03:22;95880.34;;;6.37;63.84
63019;BME280;49105;46.046;10.760;2023-03-20T07:05:47;95874.16;;;6.43;63.68
63019;BME280;49105;46.046;10.760;2023-03-20T07:08:26;95877.50;;;6.55;63.75
63019;BME280;49105;46.046;10.760;2023-03-20T07:10:52;95882.81;;;6.60;63.79
63019;BME280;49105;46.046;10.760;2023-03-20T07:13:26;95887.59;;;6.63;63.71
63019;BME280;49105;46.046;10.760;2023-03-20T07:16:02;95885.91;;;6.74;63.66
63019;BME280;49105;46.046;10.760;2023-03-20T07:18:31;95882.31;;;6.80;63.81
63019;BME280;49105;46.046;10.760;2023-03-20T07:21:06;95886.13;;;6.89;63.53
63019;BME280;49105;46.046;10.760;2023-03-20T07:23:32;95891.75;;;6.98;63.19
63019;BME280;49105;46.046;10.760;2023-03-20T07:26:01;95887.84;;;7.01;63.26
63019;BME280;49105;46.046;10.760;2023-03-20T07:28:33;95895.06;;;7.10;63.12
63019;BME280;49105;46.046;10.760;2023-03-20T07:31:02;95888.59;;;7.18;63.17
63019;BME280;49105;46.046;10.760;2023-03-20T07:33:27;95887.69;;;7.29;63.22
63019;BME280;49105;46.046;10.760;2023-03-20T07:35:53;95889.94;;;7.42;62.99
63019;BME280;49105;46.046;10.760;2023-03-20T07:38:20;95881.13;;;7.54;62.93
63019;BME280;49105;46.046;10.760;2023-03-20T07:40:53;95880.72;;;7.67;62.54
63019;BME280;49105;46.046;10.760;2023-03-20T07:43:25;95884.63;;;7.86;62.46
63019;BME280;49105;46.046;10.760;2023-03-20T07:45:50;95881.53;;;7.94;62.19
63019;BME280;49105;46.046;10.760;2023-03-20T07:48:19;95876.34;;;8.05;61.95
63019;BME280;49105;46.046;10.760;2023-03-20T07:50:45;95875.06;;;8.07;61.73
63019;BME280;49105;46.046;10.760;2023-03-20T07:53:22;95878.56;;;8.18;62.02
63019;BME280;49105;46.046;10.760;2023-03-20T07:55:47;95873.59;;;8.21;61.93
63019;BME280;49105;46.046;10.760;2023-03-20T07:58:25;95869.69;;;8.29;61.84
63019;BME280;49105;46.046;10.760;2023-03-20T08:00:59;95873.91;;;8.30;61.71
63019;BME280;49105;46.046;10.760;2023-03-20T08:03:25;95876.03;;;8.28;61.48
63019;BME280;49105;46.046;10.760;2023-03-20T08:05:57;95873.91;;;8.30;61.45
63019;BME280;49105;46.046;10.760;2023-03-20T08:08:31;95876.72;;;8.45;61.62
63019;BME280;49105;46.046;10.760;2023-03-20T08:11:03;95874.69;;;8.58;61.22
63019;BME280;49105;46.046;10.760;2023-03-20T08:13:35;95868.72;;;8.73;60.61
63019;BME280;49105;46.046;10.760;2023-03-20T08:16:09;95866.94;;;8.88;61.02
63019;BME280;49105;46.046;10.760;2023-03-20T08:18:35;95868.09;;;9.03;60.46
63019;BME280;49105;46.046;10.760;2023-03-20T08:21:01;95867.34;;;9.17;60.30
63019;BME280;49105;46.046;10.760;2023-03-20T08:23:32;95863.41;;;9.20;60.20
63019;BME280;49105;46.046;10.760;2023-03-20T08:26:04;95865.84;;;9.27;59.85
63019;BME280;49105;46.046;10.760;2023-03-20T08:28:41;95870.06;;;9.33;60.35
63019;BME280;49105;46.046;10.760;2023-03-20T08:31:16;95870.34;;;9.36;59.53
63019;BME280;49105;46.046;10.760;2023-03-20T08:33:51;95872.19;;;9.36;59.56
63019;BME280;49105;46.046;10.760;2023-03-20T08:36:17;95872.72;;;9.33;59.50
63019;BME280;49105;46.046;10.760;2023-03-20T08:38:49;95868.00;;;9.40;60.14
63019;BME280;49105;46.046;10.760;2023-03-20T08:41:18;95876.22;;;9.49;59.19
63019;BME280;49105;46.046;10.760;2023-03-20T08:43:53;95870.94;;;9.49;59.34
63019;BME280;49105;46.046;10.760;2023-03-20T08:46:18;95875.16;;;9.50;59.16
63019;BME280;49105;46.046;10.760;2023-03-20T08:48:53;95879.41;;;9.56;59.74
63019;BME280;49105;46.046;10.760;2023-03-20T08:51:18;95869.41;;;9.63;59.14
63019;BME280;49105;46.046;10.760;2023-03-20T08:53:53;95872.28;;;9.66;59.34
63019;BME280;49105;46.046;10.760;2023-03-20T08:56:24;95873.13;;;9.72;59.20
63019;BME280;49105;46.046;10.760;2023-03-20T08:58:59;95875.47;;;9.74;58.86
63019;BME280;49105;46.046;10.760;2023-03-20T09:01:24;95869.97;;;9.80;58.74
63019;BME280;49105;46.046;10.760;2023-03-20T09:04:02;95870.47;;;9.82;58.57
63019;BME280;49105;46.046;10.760;2023-03-20T09:06:27;95874.69;;;9.83;58.58
63019;BME280;49105;46.046;10.760;2023-03-20T09:09:02;95878.44;;;9.92;58.57
63019;BME280;49105;46.046;10.760;2023-03-20T09:11:28;95875.25;;;9.95;58.39
63019;BME280;49105;46.046;10.760;2023-03-20T09:13:57;95875.53;;;9.99;58.21
63019;BME280;49105;46.046;10.760;2023-03-20T09:16:29;95876.34;;;10.05;58.00
63019;BME280;49105;46.046;10.760;2023-03-20T09:18:57;95875.56;;;10.14;58.16
63019;BME280;49105;46.046;10.760;2023-03-20T09:24:54;95873.19;;;10.28;57.79
63019;BME280;49105;46.046;10.760;2023-03-20T09:27:28;95871.88;;;10.36;58.12
63019;BME280;49105;46.046;10.760;2023-03-20T09:29:56;95869.50;;;10.44;57.33
63019;BME280;49105;46.046;10.760;2023-03-20T09:32:35;95867.13;;;10.48;57.73
63019;BME280;49105;46.046;10.760;2023-03-20T09:35:09;95863.69;;;10.58;57.70
63019;BME280;49105;46.046;10.760;2023-03-20T09:37:41;95866.31;;;10.63;57.24
63019;BME280;49105;46.046;10.760;2023-03-20T09:40:20;95860.75;;;10.64;57.24
63019;BME280;49105;46.046;10.760;2023-03-20T09:43:07;95849.63;;;10.67;57.04
63019;BME280;49105;46.046;10.760;2023-03-20T09:48:39;95848.81;;;10.82;56.77
63019;BME280;49105;46.046;10.760;2023-03-20T09:54:26;95849.34;;;10.79;56.75
63019;BME280;49105;46.046;10.760;2023-03-20T09:56:55;95844.03;;;10.84;56.96
63019;BME280;49105;46.046;10.760;2023-03-20T09:59:26;95842.16;;;10.90;56.62
63019;BME280;49105;46.046;10.760;2023-03-20T10:01:54;95835.56;;;10.92;56.29
63019;BME280;49105;46.046;10.760;2023-03-20T10:04:28;95836.09;;;10.95;56.19
63019;BME280;49105;46.046;10.760;2023-03-20T10:07:02;95831.03;;;10.93;56.05
63019;BME280;49105;46.046;10.760;2023-03-20T10:09:29;95828.69;;;10.91;56.24
63019;BME280;49105;46.046;10.760;2023-03-20T10:14:52;95819.09;;;11.06;56.15
63019;BME280;49105;46.046;10.760;2023-03-20T10:17:30;95823.56;;;11.10;56.39
63019;BME280;49105;46.046;10.760;2023-03-20T10:20:11;95809.78;;;11.13;56.18
63019;BME280;49105;46.046;10.760;2023-03-20T10:23:12;95812.16;;;11.15;56.29
63019;BME280;49105;46.046;10.760;2023-03-20T10:25:45;95807.66;;;11.21;56.18
63019;BME280;49105;46.046;10.760;2023-03-20T10:28:20;95808.38;;;11.31;55.92
63019;BME280;49105;46.046;10.760;2023-03-20T10:36:32;95792.78;;;11.74;55.47
63019;BME280;49105;46.046;10.760;2023-03-20T10:42:24;95780.47;;;11.94;55.22
63019;BME280;49105;46.046;10.760;2023-03-20T10:45:06;95784.09;;;12.03;55.38
63019;BME280;49105;46.046;10.760;2023-03-20T10:47:40;95776.06;;;12.13;55.19
63019;BME280;49105;46.046;10.760;2023-03-20T10:50:16;95765.13;;;12.20;55.24
63019;BME280;49105;46.046;10.760;2023-03-20T10:52:50;95768.50;;;12.25;54.89
63019;BME280;49105;46.046;10.760;2023-03-20T10:55:20;95766.88;;;12.29;54.48
63019;BME280;49105;46.046;10.760;2023-03-20T10:58:21;95757.81;;;12.35;54.75
63019;BME280;49105;46.046;10.760;2023-03-20T11:00:57;95754.81;;;12.42;54.58
63019;BME280;49105;46.046;10.760;2023-03-20T11:03:33;95752.63;;;12.49;54.64
63019;BME280;49105;46.046;10.760;2023-03-20T11:08:37;95745.84;;;12.62;54.42
63019;BME280;49105;46.046;10.760;2023-03-20T11:11:04;95744.13;;;12.76;54.47
63019;BME280;49105;46.046;10.760;2023-03-20T11:13:43;95731.09;;;12.99;54.32
63019;BME280;49105;46.046;10.760;2023-03-20T11:16:29;95732.91;;;13.22;53.92
63019;BME280;49105;46.046;10.760;2023-03-20T11:19:07;95728.50;;;13.36;53.56
63019;BME280;49105;46.046;10.760;2023-03-20T11:25:00;95719.94;;;13.58;52.92
63019;BME280;49105;46.046;10.760;2023-03-20T11:27:35;95721.66;;;13.68;51.92
63019;BME280;49105;46.046;10.760;2023-03-20T11:30:15;95717.66;;;13.84;52.39
63019;BME280;49105;46.046;10.760;2023-03-20T11:32:53;95709.69;;;13.84;51.97
63019;BME280;49105;46.046;10.760;2023-03-20T11:35:29;95709.00;;;13.79;51.63
63019;BME280;49105;46.046;10.760;2023-03-20T11:38:19;95703.94;;;13.77;51.66
63019;BME280;49105;46.046;10.760;2023-03-20T11:40:46;95696.97;;;13.81;52.02
63019;BME280;49105;46.046;10.760;2023-03-20T11:43:17;95699.53;;;13.86;51.13
63019;BME280;49105;46.046;10.760;2023-03-20T11:45:57;95689.31;;;13.94;50.16
63019;BME280;49105;46.046;10.760;2023-03-20T11:48:41;95678.09;;;14.10;50.38
63019;BME280;49105;46.046;10.760;2023-03-20T11:51:13;95673.41;;;14.35;49.52
63019;BME280;49105;46.046;10.760;2023-03-20T11:53:41;95663.38;;;14.46;47.80
63019;BME280;49105;46.046;10.760;2023-03-20T11:56:21;95655.84;;;14.48;46.99
63019;BME280;49105;46.046;10.760;2023-03-20T12:01:48;95638.44;;;14.69;46.01
63019;BME280;49105;46.046;10.760;2023-03-20T12:04:34;95634.44;;;14.80;46.50
63019;BME280;49105;46.046;10.760;2023-03-20T12:09:55;95625.41;;;15.04;43.54
63019;BME280;49105;46.046;10.760;2023-03-20T12:20:23;95615.69;;;15.67;43.06
63019;BME280;49105;46.046;10.760;2023-03-20T12:26:00;95618.88;;;15.55;42.61
63019;BME280;49105;46.046;10.760;2023-03-20T12:31:34;95610.25;;;15.27;41.29
63019;BME280;49105;46.046;10.760;2023-03-20T12:37:24;95607.50;;;15.18;40.83
63019;BME280;49105;46.046;10.760;2023-03-20T12:39:58;95600.59;;;15.17;40.42
63019;BME280;49105;46.046;10.760;2023-03-20T12:45:17;95597.53;;;15.10;39.59
63019;BME280;49105;46.046;10.760;2023-03-20T12:50:47;95597.13;;;15.17;39.24
63019;BME280;49105;46.046;10.760;2023-03-20T12:53:39;95589.75;;;15.13;39.52
63019;BME280;49105;46.046;10.760;2023-03-20T13:01:40;95592.56;;;15.31;39.73
63019;BME280;49105;46.046;10.760;2023-03-20T13:07:00;95580.16;;;15.57;40.64
63019;BME280;49105;46.046;10.760;2023-03-20T13:14:43;95583.69;;;15.98;41.59
63019;BME280;49105;46.046;10.760;2023-03-20T13:20:18;95583.09;;;16.01;41.52
63019;BME280;49105;46.046;10.760;2023-03-20T13:28:06;95587.84;;;15.81;42.31
63019;BME280;49105;46.046;10.760;2023-03-20T13:30:44;95594.75;;;15.82;42.51
63019;BME280;49105;46.046;10.760;2023-03-20T13:36:27;95584.41;;;15.81;42.77
63019;BME280;49105;46.046;10.760;2023-03-20T13:39:05;95581.59;;;15.86;42.94
63019;BME280;49105;46.046;10.760;2023-03-20T13:41:35;95583.47;;;15.85;42.60
63019;BME280;49105;46.046;10.760;2023-03-20T13:44:03;95577.66;;;15.83;42.63
63019;BME280;49105;46.046;10.760;2023-03-20T13:52:41;95575.69;;;15.67;42.98
63019;BME280;49105;46.046;10.760;2023-03-20T13:55:59;95569.41;;;15.71;43.22
63019;BME280;49105;46.046;10.760;2023-03-20T14:04:01;95572.66;;;15.59;43.59
63019;BME280;49105;46.046;10.760;2023-03-20T14:12:57;95569.44;;;15.49;43.79
63019;BME280;49105;46.046;10.760;2023-03-20T14:15:33;95571.31;;;15.48;43.54
63019;BME280;49105;46.046;10.760;2023-03-20T14:18:14;95570.88;;;15.55;43.84
63019;BME280;49105;46.046;10.760;2023-03-20T14:20:56;95569.16;;;15.59;43.89
63019;BME280;49105;46.046;10.760;2023-03-20T14:23:39;95568.09;;;15.60;44.02
63019;BME280;49105;46.046;10.760;2023-03-20T14:26:20;95575.44;;;15.54;44.11
63019;BME280;49105;46.046;10.760;2023-03-20T14:28:54;95571.50;;;15.52;44.12
63019;BME280;49105;46.046;10.760;2023-03-20T14:31:30;95569.91;;;15.51;44.14
63019;BME280;49105;46.046;10.760;2023-03-20T14:36:59;95573.69;;;15.50;44.07
63019;BME280;49105;46.046;10.760;2023-03-20T14:42:06;95577.41;;;15.40;44.80
63019;BME280;49105;46.046;10.760;2023-03-20T14:50:33;95589.88;;;15.31;44.78
63019;BME280;49105;46.046;10.760;2023-03-20T15:04:07;95584.00;;;14.84;44.87
63019;BME280;49105;46.046;10.760;2023-03-20T15:06:42;95594.47;;;14.80;44.71
63019;BME280;49105;46.046;10.760;2023-03-20T15:09:15;95597.84;;;14.72;45.26
63019;BME280;49105;46.046;10.760;2023-03-20T15:11:45;95590.28;;;14.66;45.25
63019;BME280;49105;46.046;10.760;2023-03-20T15:14:19;95603.41;;;14.62;45.20
63019;BME280;49105;46.046;10.760;2023-03-20T15:17:00;95601.25;;;14.50;45.39
63019;BME280;49105;46.046;10.760;2023-03-20T15:19:38;95611.69;;;14.47;45.71
63019;BME280;49105;46.046;10.760;2023-03-20T15:22:18;95604.06;;;14.40;45.91
63019;BME280;49105;46.046;10.760;2023-03-20T15:24:54;95603.91;;;14.36;46.25
63019;BME280;49105;46.046;10.760;2023-03-20T15:27:30;95607.16;;;14.33;46.58
63019;BME280;49105;46.046;10.760;2023-03-20T15:30:02;95605.19;;;14.25;46.73
63019;BME280;49105;46.046;10.760;2023-03-20T15:32:36;95607.66;;;14.22;46.54
63019;BME280;49105;46.046;10.760;2023-03-20T15:35:17;95611.78;;;14.14;47.21
63019;BME280;49105;46.046;10.760;2023-03-20T15:37:49;95621.16;;;14.11;47.38
63019;BME280;49105;46.046;10.760;2023-03-20T15:43:04;95614.03;;;14.07;46.90
63019;BME280;49105;46.046;10.760;2023-03-20T15:45:36;95613.34;;;14.01;47.07
63019;BME280;49105;46.046;10.760;2023-03-20T15:48:40;95627.53;;;13.97;47.90
63019;BME280;49105;46.046;10.760;2023-03-20T15:51:05;95627.84;;;13.95;47.29
63019;BME280;49105;46.046;10.760;2023-03-20T15:53:43;95631.28;;;13.96;47.24
63019;BME280;49105;46.046;10.760;2023-03-20T15:56:17;95643.50;;;13.97;47.48
63019;BME280;49105;46.046;10.760;2023-03-20T15:58:54;95639.47;;;13.99;47.19
63019;BME280;49105;46.046;10.760;2023-03-20T16:01:23;95631.28;;;14.09;47.49
63019;BME280;49105;46.046;10.760;2023-03-20T16:03:50;95640.38;;;14.22;47.57
63019;BME280;49105;46.046;10.760;2023-03-20T16:06:28;95648.09;;;14.24;47.52
63019;BME280;49105;46.046;10.760;2023-03-20T16:09:06;95639.22;;;14.28;47.73
63019;BME280;49105;46.046;10.760;2023-03-20T16:11:40;95639.78;;;14.25;47.61
63019;BME280;49105;46.046;10.760;2023-03-20T16:14:11;95634.56;;;14.20;48.11